(°C)
-1°
-1°
-2°
-2°
-3°
-4°
-4°
(°C)
-5°
-6°
-7°
-8°
-8°
-9°
-10°
W
NW
NW
NW
NNW
NNW
NNW
(km/h)
7-12
10-16
13-19
15-21
15-23
16-23
17-26
(mm)
0
0
0
0
0
0
0
(%)
13
13
14
14
14
20
14

Sonnenhöhe

/ -51.5°
sun-icon
UV 0
08:41
16:03
Zunehmender Halbmond (45°)
12:24
19:03

METAR für 55.6°N 37.27°O (UUWW)

Zeit Bedingungen Temperatur/
Taupunkt
Wind Sichtweite Wetter Wolken Druck Änderung Roh
LIFR -1°C / -1°C 300º 8kt 2900m Mist Vertical Visibility of 0ft. 1012 No Significant change. Runway 24: Wet snow, 11-25% contamination with 3mm, friction coefficient 0.42. UUWW 071900Z 30004MPS 2900 BR OVC001 M01/M01 Q1012 R24/520342 NOSIG RMK QBB050
LIFR -1°C / -1°C 290º 6kt 1200m. Runway 24: Visual range is 1500m and increasing. freezing Fog Vertical Visibility of 0ft. 1012 No Significant change. Runway 24: Wet snow, 11-25% contamination with 3mm, friction coefficient 0.42. UUWW 071830Z 29003MPS 1200 0600W R24/1500U FZFG OVC001 M01/M01 Q1012 R24/520342 NOSIG RMK QBB050
LIFR 0°C / -1°C 280º 4kt 450m. Runway 24: Visual range is 1100m and decreasing. freezing Fog Vertical Visibility of 0ft. 1012 Temporary: Visibility 0500. freezing Fog . RMK QBB050 . Runway 24: Wet snow, 11-25% contamination with 3mm, friction coefficient 0.42. UUWW 071800Z 28002MPS 0450 0350W R24/1100D FZFG VV001 M00/M01 Q1012 R24/520342 TEMPO 0500 FZFG RMK QBB050
LIFR 0°C / -1°C 230º 4kt 900m. Runway 24: Visual range is 2000m. freezing Fog Vertical Visibility of 0ft. 1011 Temporary: Visibility 0500. freezing Fog . RMK QBB050 . Runway 24: Wet snow, 11-25% contamination with 3mm, friction coefficient 0.42. UUWW 071730Z 23002MPS 0900 0650SW R24/P2000N FZFG VV001 M00/M01 Q1011 R24/520342 TEMPO 0500 FZFG RMK QBB050
LIFR 0°C / -1°C variable 0kt 1100m. Runway 24: Visual range is 2000m and decreasing. freezing Fog Vertical Visibility of 0ft. 1011 Temporary: Visibility 0500. freezing Fog . RMK QBB050 . Runway 24: Wet snow, 11-25% contamination with 3mm, friction coefficient 0.42. UUWW 071700Z 00000MPS 1100 0750SW R24/P2000D FZFG OVC001 M00/M01 Q1011 R24/520342 TEMPO 0500 FZFG RMK QBB050
LIFR 0°C / -1°C 170º 4kt 1300m. Runway 24: Visual range is 2000m and decreasing. Mist Vertical Visibility of 0ft. 1011 Temporary: Visibility 1000. Mist . RMK QBB060 . Runway 24: Wet snow, 11-25% contamination with 3mm, friction coefficient 0.42. UUWW 071630Z 17002MPS 1300 1200SW R24/P2000D BR OVC002 M00/M01 Q1011 R24/520342 TEMPO 1000 BR RMK QBB060
LIFR 0°C / -1°C 160º 4kt 2000m Mist Vertical Visibility of 0ft. 1011 Temporary: Visibility 1000. Light freezing Drizzle . Mist . Overcast 200ft. . Runway 24: Wet snow, 11-25% contamination with 3mm, friction coefficient 0.42. UUWW 071600Z 16002MPS 2000 BR OVC002 M00/M01 Q1011 R24/520342 TEMPO 1000 -FZDZ BR OVC002
LIFR 0°C / -1°C 150º 4kt 2300m Mist Vertical Visibility of 0ft. 1011 Temporary: Visibility 1000. Light freezing Drizzle . Mist . Overcast 200ft. RMK QBB060 . Runway 24: Wet snow, 11-25% contamination with 3mm, friction coefficient 0.42. UUWW 071530Z 15002MPS 2300 BR OVC002 M00/M01 Q1011 R24/520342 TEMPO 1000 -FZDZ BR OVC002 RMK QBB060
LIFR -1°C / -1°C 150º 4kt 3200m Light Snow Mist 1.00mm precipitation Vertical Visibility of 0ft. 1011 Temporary: Visibility 1000. Light freezing Drizzle . Mist . Overcast 200ft. . Runway 24: Wet snow, 11-25% contamination with 3mm, friction coefficient 0.42. UUWW 071500Z 15002MPS 3200 -SN BR OVC002 M01/M01 Q1011 R24/520342 TEMPO 1000 -FZDZ BR OVC002
LIFR -1°C / -1°C 150º 4kt 2400m Light Snow Mist 1.00mm precipitation Vertical Visibility of 0ft. 1011 Temporary: Visibility 1000. Light freezing Drizzle . Mist . Overcast 200ft. . Runway 24: Wet snow, 11-25% contamination with 3mm, friction coefficient 0.42. UUWW 071430Z 15002MPS 2400 -SN BR OVC004 M01/M01 Q1011 R24/520342 TEMPO 1000 -FZDZ BR OVC002
LIFR -1°C / -1°C 150º 4kt 2300m Light Snow Mist 1.00mm precipitation Vertical Visibility of 0ft. 1010 No Significant change. Runway 24: Wet snow, 11-25% contamination with 3mm, friction coefficient 0.42. UUWW 071400Z 15002MPS 2300 -SN BR OVC004 M01/M01 Q1010 R24/520342 NOSIG
LIFR -1°C / -2°C 140º 4kt 4100m Light Snow Mist 1.00mm precipitation Vertical Visibility of 0ft. 1010 Temporary: Visibility 1000. Showers Snow . freezing Rain . Broken Clouds 300ft. Broken Clouds 1200ft. Cumulonimbus . Runway 24: Wet snow, 11-25% contamination with 3mm, friction coefficient 0.42. UUWW 071330Z 14002MPS 4100 -SN BR OVC003 M01/M02 Q1010 R24/520342 TEMPO 1000 SHSN FZRA BKN003 BKN012CB
LIFR -1°C / -2°C 140º 6kt 3200m Light Snow Mist 1.00mm precipitation Vertical Visibility of 0ft. 1010 Temporary: Visibility 1000. Showers Snow . freezing Rain . Broken Clouds 300ft. Broken Clouds 1200ft. Cumulonimbus . Runway 19: Wet snow, 11-25% contamination with 3mm, friction coefficient 0.40. UUWW 071300Z 14003MPS 3200 -SN BR OVC004 M01/M02 Q1010 R19/520340 TEMPO 1000 SHSN FZRA BKN003 BKN012CB
IFR -1°C / -2°C 140º 8kt 5000m Light Snow Mist 1.00mm precipitation Vertical Visibility of 0ft.
Overcast 2700ft
1010 Temporary: Visibility 1000. Showers Snow . freezing Rain . Broken Clouds 300ft. Broken Clouds 1200ft. Cumulonimbus . Runway 19: Wet snow, 11-25% contamination with 3mm, friction coefficient 0.40. UUWW 071230Z 14004MPS 5000 -SN BR BKN005 OVC027 M01/M02 Q1010 R19/520340 TEMPO 1000 SHSN FZRA BKN003 BKN012CB
IFR -1°C / -2°C 140º 8kt 4700m Light Snow 1.00mm precipitation Vertical Visibility of 0ft.
Overcast 2700ft
1010 No Significant change. Runway 19: Wet snow, 11-25% contamination with 3mm, friction coefficient 0.40. UUWW 071200Z 14004MPS 4700 -SN BKN005 OVC027 M01/M02 Q1010 R19/520340 NOSIG
LIFR -1°C / -2°C 130º 8kt 2700m Light Snow 1.00mm precipitation Vertical Visibility of 0ft.
Overcast 2600ft
1010 Temporary: Visibility 0600. Heavy Showers Snow . Broken Clouds 1200ft. Cumulonimbus . Runway 19: Wet snow, 11-25% contamination with 3mm, friction coefficient 0.40. UUWW 071130Z 13004MPS 2700 -SN BKN004 OVC026 M01/M02 Q1010 R19/520340 TEMPO 0600 +SHSN BKN012CB
LIFR -1°C / -2°C 140º 10kt 2900m Light Snow 1.00mm precipitation Vertical Visibility of 0ft.
Overcast 2600ft
1010 Temporary: Visibility 0600. Heavy Showers Snow . Broken Clouds 1200ft. Cumulonimbus . Runway 19: Wet snow, 26-50% contamination with 3mm, friction coefficient 0.37. UUWW 071100Z 14005MPS 2900 -SN BKN004 OVC026 M01/M02 Q1010 R19/550337 TEMPO 0600 +SHSN BKN012CB
LIFR -2°C / -2°C 140º 10kt 2800m Light Snow 1.00mm precipitation Vertical Visibility of 0ft.
Overcast 2600ft
1010 Temporary: Visibility 0600. Heavy Showers Snow . Broken Clouds 1200ft. Cumulonimbus . Runway 19: Wet snow, 26-50% contamination with 3mm, friction coefficient 0.37. UUWW 071030Z 14005MPS 2800 -SN BKN004 OVC026 M02/M02 Q1010 R19/550337 TEMPO 0600 +SHSN BKN012CB
LIFR -2°C / -2°C 140º 10kt 2400m Light Snow 1.00mm precipitation Vertical Visibility of 0ft.
Overcast 2600ft
1010 No Significant change. Runway 19: Wet snow, 26-50% contamination with 3mm, friction coefficient 0.37. UUWW 071000Z 14005MPS 2400 -SN BKN004 OVC026 M02/M02 Q1010 R19/550337 NOSIG
IFR -2°C / -3°C 130º 8kt 2700m Light Snow 1.00mm precipitation Vertical Visibility of 0ft.
Overcast 2600ft
1010 No Significant change. Runway 06: Wet snow, 26-50% contamination with 3mm, friction coefficient 0.37. UUWW 070930Z 13004MPS 2700 -SN BKN005 OVC026 M02/M03 Q1010 R06/550337 NOSIG
IFR -2°C / -3°C 130º 8kt 2300m Light Snow 1.00mm precipitation Vertical Visibility of 0ft.
Overcast 2400ft
1010 No Significant change. Runway 06: Wet snow, 26-50% contamination with 3mm, friction coefficient 0.37. UUWW 070900Z 13004MPS 2300 -SN BKN005 OVC024 M02/M03 Q1010 R06/550337 NOSIG
LIFR -2°C / -3°C 130º 8kt 1400m. Runway 06: Visual range is 1500m and increasing. Snow 3.00mm precipitation Vertical Visibility of 0ft.
Overcast 2300ft
1011 Temporary: Visibility 0600. Heavy Showers Snow . Broken Clouds 300ft. Broken Clouds 1200ft. Cumulonimbus . Runway 06: Wet snow, 26-50% contamination with 3mm, friction coefficient 0.37. UUWW 070830Z 13004MPS 1400 1300SE R06/1500U SN BKN005 OVC023 M02/M03 Q1011 R06/550337 TEMPO 0600 +SHSN BKN003 BKN012CB
LIFR -2°C / -3°C 130º 8kt 1600m. Runway 06: Visual range is 1700m and increasing. Showers Snow 3.00mm precipitation Vertical Visibility of 0ft.
Broken Clouds 2500ft
1011 Temporary: Visibility 0600. Heavy Showers Snow . Broken Clouds 300ft. Broken Clouds 1200ft. Cumulonimbus . Runway 06: Wet snow, 26-50% contamination with 3mm, friction coefficient 0.37. UUWW 070800Z 13004MPS 1600 R06/1700U SHSN BKN005 BKN025CB M02/M03 Q1011 R06/550337 TEMPO 0600 +SHSN BKN003 BKN012CB
LIFR -2°C / -3°C 120º 6kt 1800m. Runway 01: Visual range is 1800m and decreasing. Snow 3.00mm precipitation Vertical Visibility of 0ft.
Overcast 2500ft
1011 Temporary: Visibility 0600. Heavy Showers Snow . Broken Clouds 300ft. Broken Clouds 1200ft. Cumulonimbus . Runway 01: Wet snow, 51-100% contamination with 3mm, friction coefficient 0.35. UUWW 070730Z 12003MPS 1800 R01/1800D SN BKN004 OVC025 M02/M03 Q1011 R01/590335 TEMPO 0600 +SHSN BKN003 BKN012CB

LIFR

-1°C / -1°C

[Mehr]
Wind 300º 8kt
Sichtweite 2900m
Wetter Mist
Wolken Vertical Visibility of 0ft.
Druck 1012
Änderung No Significant change. Runway 24: Wet snow, 11-25% contamination with 3mm, friction coefficient 0.42.
Roh UUWW 071900Z 30004MPS 2900 BR OVC001 M01/M01 Q1012 R24/520342 NOSIG RMK QBB050

LIFR

-1°C / -1°C

[Mehr]
Wind 290º 6kt
Sichtweite 1200m. Runway 24: Visual range is 1500m and increasing.
Wetter freezing Fog
Wolken Vertical Visibility of 0ft.
Druck 1012
Änderung No Significant change. Runway 24: Wet snow, 11-25% contamination with 3mm, friction coefficient 0.42.
Roh UUWW 071830Z 29003MPS 1200 0600W R24/1500U FZFG OVC001 M01/M01 Q1012 R24/520342 NOSIG RMK QBB050

LIFR

0°C / -1°C

[Mehr]
Wind 280º 4kt
Sichtweite 450m. Runway 24: Visual range is 1100m and decreasing.
Wetter freezing Fog
Wolken Vertical Visibility of 0ft.
Druck 1012
Änderung Temporary: Visibility 0500. freezing Fog . RMK QBB050 . Runway 24: Wet snow, 11-25% contamination with 3mm, friction coefficient 0.42.
Roh UUWW 071800Z 28002MPS 0450 0350W R24/1100D FZFG VV001 M00/M01 Q1012 R24/520342 TEMPO 0500 FZFG RMK QBB050

LIFR

0°C / -1°C

[Mehr]
Wind 230º 4kt
Sichtweite 900m. Runway 24: Visual range is 2000m.
Wetter freezing Fog
Wolken Vertical Visibility of 0ft.
Druck 1011
Änderung Temporary: Visibility 0500. freezing Fog . RMK QBB050 . Runway 24: Wet snow, 11-25% contamination with 3mm, friction coefficient 0.42.
Roh UUWW 071730Z 23002MPS 0900 0650SW R24/P2000N FZFG VV001 M00/M01 Q1011 R24/520342 TEMPO 0500 FZFG RMK QBB050

LIFR

0°C / -1°C

[Mehr]
Wind variable 0kt
Sichtweite 1100m. Runway 24: Visual range is 2000m and decreasing.
Wetter freezing Fog
Wolken Vertical Visibility of 0ft.
Druck 1011
Änderung Temporary: Visibility 0500. freezing Fog . RMK QBB050 . Runway 24: Wet snow, 11-25% contamination with 3mm, friction coefficient 0.42.
Roh UUWW 071700Z 00000MPS 1100 0750SW R24/P2000D FZFG OVC001 M00/M01 Q1011 R24/520342 TEMPO 0500 FZFG RMK QBB050

LIFR

0°C / -1°C

[Mehr]
Wind 170º 4kt
Sichtweite 1300m. Runway 24: Visual range is 2000m and decreasing.
Wetter Mist
Wolken Vertical Visibility of 0ft.
Druck 1011
Änderung Temporary: Visibility 1000. Mist . RMK QBB060 . Runway 24: Wet snow, 11-25% contamination with 3mm, friction coefficient 0.42.
Roh UUWW 071630Z 17002MPS 1300 1200SW R24/P2000D BR OVC002 M00/M01 Q1011 R24/520342 TEMPO 1000 BR RMK QBB060

LIFR

0°C / -1°C

[Mehr]
Wind 160º 4kt
Sichtweite 2000m
Wetter Mist
Wolken Vertical Visibility of 0ft.
Druck 1011
Änderung Temporary: Visibility 1000. Light freezing Drizzle . Mist . Overcast 200ft. . Runway 24: Wet snow, 11-25% contamination with 3mm, friction coefficient 0.42.
Roh UUWW 071600Z 16002MPS 2000 BR OVC002 M00/M01 Q1011 R24/520342 TEMPO 1000 -FZDZ BR OVC002

LIFR

0°C / -1°C

[Mehr]
Wind 150º 4kt
Sichtweite 2300m
Wetter Mist
Wolken Vertical Visibility of 0ft.
Druck 1011
Änderung Temporary: Visibility 1000. Light freezing Drizzle . Mist . Overcast 200ft. RMK QBB060 . Runway 24: Wet snow, 11-25% contamination with 3mm, friction coefficient 0.42.
Roh UUWW 071530Z 15002MPS 2300 BR OVC002 M00/M01 Q1011 R24/520342 TEMPO 1000 -FZDZ BR OVC002 RMK QBB060

LIFR

-1°C / -1°C

[Mehr]
Wind 150º 4kt
Sichtweite 3200m
Wetter Light Snow Mist 1.00mm precipitation
Wolken Vertical Visibility of 0ft.
Druck 1011
Änderung Temporary: Visibility 1000. Light freezing Drizzle . Mist . Overcast 200ft. . Runway 24: Wet snow, 11-25% contamination with 3mm, friction coefficient 0.42.
Roh UUWW 071500Z 15002MPS 3200 -SN BR OVC002 M01/M01 Q1011 R24/520342 TEMPO 1000 -FZDZ BR OVC002

LIFR

-1°C / -1°C

[Mehr]
Wind 150º 4kt
Sichtweite 2400m
Wetter Light Snow Mist 1.00mm precipitation
Wolken Vertical Visibility of 0ft.
Druck 1011
Änderung Temporary: Visibility 1000. Light freezing Drizzle . Mist . Overcast 200ft. . Runway 24: Wet snow, 11-25% contamination with 3mm, friction coefficient 0.42.
Roh UUWW 071430Z 15002MPS 2400 -SN BR OVC004 M01/M01 Q1011 R24/520342 TEMPO 1000 -FZDZ BR OVC002

LIFR

-1°C / -1°C

[Mehr]
Wind 150º 4kt
Sichtweite 2300m
Wetter Light Snow Mist 1.00mm precipitation
Wolken Vertical Visibility of 0ft.
Druck 1010
Änderung No Significant change. Runway 24: Wet snow, 11-25% contamination with 3mm, friction coefficient 0.42.
Roh UUWW 071400Z 15002MPS 2300 -SN BR OVC004 M01/M01 Q1010 R24/520342 NOSIG

LIFR

-1°C / -2°C

[Mehr]
Wind 140º 4kt
Sichtweite 4100m
Wetter Light Snow Mist 1.00mm precipitation
Wolken Vertical Visibility of 0ft.
Druck 1010
Änderung Temporary: Visibility 1000. Showers Snow . freezing Rain . Broken Clouds 300ft. Broken Clouds 1200ft. Cumulonimbus . Runway 24: Wet snow, 11-25% contamination with 3mm, friction coefficient 0.42.
Roh UUWW 071330Z 14002MPS 4100 -SN BR OVC003 M01/M02 Q1010 R24/520342 TEMPO 1000 SHSN FZRA BKN003 BKN012CB

LIFR

-1°C / -2°C

[Mehr]
Wind 140º 6kt
Sichtweite 3200m
Wetter Light Snow Mist 1.00mm precipitation
Wolken Vertical Visibility of 0ft.
Druck 1010
Änderung Temporary: Visibility 1000. Showers Snow . freezing Rain . Broken Clouds 300ft. Broken Clouds 1200ft. Cumulonimbus . Runway 19: Wet snow, 11-25% contamination with 3mm, friction coefficient 0.40.
Roh UUWW 071300Z 14003MPS 3200 -SN BR OVC004 M01/M02 Q1010 R19/520340 TEMPO 1000 SHSN FZRA BKN003 BKN012CB

IFR

-1°C / -2°C

[Mehr]
Wind 140º 8kt
Sichtweite 5000m
Wetter Light Snow Mist 1.00mm precipitation
Wolken Vertical Visibility of 0ft.
Overcast 2700ft
Druck 1010
Änderung Temporary: Visibility 1000. Showers Snow . freezing Rain . Broken Clouds 300ft. Broken Clouds 1200ft. Cumulonimbus . Runway 19: Wet snow, 11-25% contamination with 3mm, friction coefficient 0.40.
Roh UUWW 071230Z 14004MPS 5000 -SN BR BKN005 OVC027 M01/M02 Q1010 R19/520340 TEMPO 1000 SHSN FZRA BKN003 BKN012CB

IFR

-1°C / -2°C

[Mehr]
Wind 140º 8kt
Sichtweite 4700m
Wetter Light Snow 1.00mm precipitation
Wolken Vertical Visibility of 0ft.
Overcast 2700ft
Druck 1010
Änderung No Significant change. Runway 19: Wet snow, 11-25% contamination with 3mm, friction coefficient 0.40.
Roh UUWW 071200Z 14004MPS 4700 -SN BKN005 OVC027 M01/M02 Q1010 R19/520340 NOSIG

LIFR

-1°C / -2°C

[Mehr]
Wind 130º 8kt
Sichtweite 2700m
Wetter Light Snow 1.00mm precipitation
Wolken Vertical Visibility of 0ft.
Overcast 2600ft
Druck 1010
Änderung Temporary: Visibility 0600. Heavy Showers Snow . Broken Clouds 1200ft. Cumulonimbus . Runway 19: Wet snow, 11-25% contamination with 3mm, friction coefficient 0.40.
Roh UUWW 071130Z 13004MPS 2700 -SN BKN004 OVC026 M01/M02 Q1010 R19/520340 TEMPO 0600 +SHSN BKN012CB

LIFR

-1°C / -2°C

[Mehr]
Wind 140º 10kt
Sichtweite 2900m
Wetter Light Snow 1.00mm precipitation
Wolken Vertical Visibility of 0ft.
Overcast 2600ft
Druck 1010
Änderung Temporary: Visibility 0600. Heavy Showers Snow . Broken Clouds 1200ft. Cumulonimbus . Runway 19: Wet snow, 26-50% contamination with 3mm, friction coefficient 0.37.
Roh UUWW 071100Z 14005MPS 2900 -SN BKN004 OVC026 M01/M02 Q1010 R19/550337 TEMPO 0600 +SHSN BKN012CB

LIFR

-2°C / -2°C

[Mehr]
Wind 140º 10kt
Sichtweite 2800m
Wetter Light Snow 1.00mm precipitation
Wolken Vertical Visibility of 0ft.
Overcast 2600ft
Druck 1010
Änderung Temporary: Visibility 0600. Heavy Showers Snow . Broken Clouds 1200ft. Cumulonimbus . Runway 19: Wet snow, 26-50% contamination with 3mm, friction coefficient 0.37.
Roh UUWW 071030Z 14005MPS 2800 -SN BKN004 OVC026 M02/M02 Q1010 R19/550337 TEMPO 0600 +SHSN BKN012CB

LIFR

-2°C / -2°C

[Mehr]
Wind 140º 10kt
Sichtweite 2400m
Wetter Light Snow 1.00mm precipitation
Wolken Vertical Visibility of 0ft.
Overcast 2600ft
Druck 1010
Änderung No Significant change. Runway 19: Wet snow, 26-50% contamination with 3mm, friction coefficient 0.37.
Roh UUWW 071000Z 14005MPS 2400 -SN BKN004 OVC026 M02/M02 Q1010 R19/550337 NOSIG

IFR

-2°C / -3°C

[Mehr]
Wind 130º 8kt
Sichtweite 2700m
Wetter Light Snow 1.00mm precipitation
Wolken Vertical Visibility of 0ft.
Overcast 2600ft
Druck 1010
Änderung No Significant change. Runway 06: Wet snow, 26-50% contamination with 3mm, friction coefficient 0.37.
Roh UUWW 070930Z 13004MPS 2700 -SN BKN005 OVC026 M02/M03 Q1010 R06/550337 NOSIG

IFR

-2°C / -3°C

[Mehr]
Wind 130º 8kt
Sichtweite 2300m
Wetter Light Snow 1.00mm precipitation
Wolken Vertical Visibility of 0ft.
Overcast 2400ft
Druck 1010
Änderung No Significant change. Runway 06: Wet snow, 26-50% contamination with 3mm, friction coefficient 0.37.
Roh UUWW 070900Z 13004MPS 2300 -SN BKN005 OVC024 M02/M03 Q1010 R06/550337 NOSIG

LIFR

-2°C / -3°C

[Mehr]
Wind 130º 8kt
Sichtweite 1400m. Runway 06: Visual range is 1500m and increasing.
Wetter Snow 3.00mm precipitation
Wolken Vertical Visibility of 0ft.
Overcast 2300ft
Druck 1011
Änderung Temporary: Visibility 0600. Heavy Showers Snow . Broken Clouds 300ft. Broken Clouds 1200ft. Cumulonimbus . Runway 06: Wet snow, 26-50% contamination with 3mm, friction coefficient 0.37.
Roh UUWW 070830Z 13004MPS 1400 1300SE R06/1500U SN BKN005 OVC023 M02/M03 Q1011 R06/550337 TEMPO 0600 +SHSN BKN003 BKN012CB

LIFR

-2°C / -3°C

[Mehr]
Wind 130º 8kt
Sichtweite 1600m. Runway 06: Visual range is 1700m and increasing.
Wetter Showers Snow 3.00mm precipitation
Wolken Vertical Visibility of 0ft.
Broken Clouds 2500ft
Druck 1011
Änderung Temporary: Visibility 0600. Heavy Showers Snow . Broken Clouds 300ft. Broken Clouds 1200ft. Cumulonimbus . Runway 06: Wet snow, 26-50% contamination with 3mm, friction coefficient 0.37.
Roh UUWW 070800Z 13004MPS 1600 R06/1700U SHSN BKN005 BKN025CB M02/M03 Q1011 R06/550337 TEMPO 0600 +SHSN BKN003 BKN012CB

LIFR

-2°C / -3°C

[Mehr]
Wind 120º 6kt
Sichtweite 1800m. Runway 01: Visual range is 1800m and decreasing.
Wetter Snow 3.00mm precipitation
Wolken Vertical Visibility of 0ft.
Overcast 2500ft
Druck 1011
Änderung Temporary: Visibility 0600. Heavy Showers Snow . Broken Clouds 300ft. Broken Clouds 1200ft. Cumulonimbus . Runway 01: Wet snow, 51-100% contamination with 3mm, friction coefficient 0.35.
Roh UUWW 070730Z 12003MPS 1800 R01/1800D SN BKN004 OVC025 M02/M03 Q1011 R01/590335 TEMPO 0600 +SHSN BKN003 BKN012CB

TAF für 55.6°N 37.27°O (UUWW)

From till


Maximum Temperature -0ºC on . Minimum Temperature -7ºC on .
From till Wind 330º 6kt. Gust 16kt. Visibility 6000m. Overcast 400ft.
Temporarly from till Visibility 997.791m. Mist . Overcast 200ft.

Roh: TAF AMD UUWW 071913Z 0719/0818 33003G08MPS 6000 OVC004 TXM00/0719Z TNM07/0818Z TEMPO 0719/0803 1000 BR OVC002

Radar- und Niederschlags-Nowcast für 55.6°N 37.27°O

Nieselregen
Leicht
Moderat
Stark
Sehr schwer
Hagel

Die Ortsmarkierung zeigt auf 55.6°N 37.27°O. Diese Animation zeigt das Niederschlagsradar der letzten Stunde, sowie eine 1h Vorhersage. Nieselregen und leichter Schneefall können für das Radar unsichtbar sein. Die Niederschlagsintensität ist farbcodiert von Hellblau bis Orange.

Aktuelle Satelliten- und Regenbilder für 55.6°N 37.27°O

Die Standortmarkierung ist platziert auf 55.6°N 37.27°O. [Mehr]

Das Echtzeit-Satellitenbild kombiniert sichtbares Licht während des Tages mit Infrarotstrahlung während der Nacht. Nachts ist das Bild nicht dunkel, da Infrarotstrahlung Temperaturunterschiede erkennen kann. Leider sind niedrige Wolken und Nebel nur schwer von den Bodentemperaturen zu unterscheiden und können daher nachts fast unsichtbar sein. Meteosat-Satellitenbilder für Europa werden alle 5 Minuten in Echtzeit aktualisiert. Die Bilder GOES-16 / GOES-17 (Nord- und Südamerika) und Himawari (Asien) werden alle 10 Minuten aktualisiert.

Copyright 2021 EUMETSAT / meteoblue. / Copyright 2021 meteoblue